sensor_id;sensor_type;location;lat;lon;timestamp;temperature;humidity
16491;DHT22;8356;51.214;3.270;2024-03-23T00:54:23;281.80;2278.40
16491;DHT22;8356;51.214;3.270;2024-03-23T00:56:48;281.80;2278.40
16491;DHT22;8356;51.214;3.270;2024-03-23T00:59:14;281.90;2278.40
16491;DHT22;8356;51.214;3.270;2024-03-23T01:01:40;281.90;2278.40
16491;DHT22;8356;51.214;3.270;2024-03-23T01:04:06;281.90;2278.40
16491;DHT22;8356;51.214;3.270;2024-03-23T01:06:31;281.90;2278.40
16491;DHT22;8356;51.214;3.270;2024-03-23T01:08:57;281.90;2278.40
16491;DHT22;8356;51.214;3.270;2024-03-23T01:11:23;281.90;2278.40
16491;DHT22;8356;51.214;3.270;2024-03-23T01:13:48;281.80;2278.40
16491;DHT22;8356;51.214;3.270;2024-03-23T01:16:14;281.90;2278.40
16491;DHT22;8356;51.214;3.270;2024-03-23T01:18:39;281.80;2278.40
16491;DHT22;8356;51.214;3.270;2024-03-23T01:21:05;281.80;2278.40
16491;DHT22;8356;51.214;3.270;2024-03-23T01:23:30;281.80;2278.40
16491;DHT22;8356;51.214;3.270;2024-03-23T01:25:56;281.80;2278.40
16491;DHT22;8356;51.214;3.270;2024-03-23T01:28:22;281.80;2278.40
16491;DHT22;8356;51.214;3.270;2024-03-23T01:30:49;281.80;2278.40
16491;DHT22;8356;51.214;3.270;2024-03-23T01:33:14;281.80;2278.40
16491;DHT22;8356;51.214;3.270;2024-03-23T01:35:40;281.80;2278.40
16491;DHT22;8356;51.214;3.270;2024-03-23T01:38:06;281.80;2278.40
16491;DHT22;8356;51.214;3.270;2024-03-23T01:40:32;281.90;2278.40
16491;DHT22;8356;51.214;3.270;2024-03-23T01:43:05;281.80;2278.40
16491;DHT22;8356;51.214;3.270;2024-03-23T01:45:33;281.80;2278.40
16491;DHT22;8356;51.214;3.270;2024-03-23T01:47:59;281.90;2278.40
16491;DHT22;8356;51.214;3.270;2024-03-23T01:50:26;281.80;2278.40
16491;DHT22;8356;51.214;3.270;2024-03-23T01:52:52;282.00;2278.40
16491;DHT22;8356;51.214;3.270;2024-03-23T01:55:18;282.00;2278.40
16491;DHT22;8356;51.214;3.270;2024-03-23T01:57:44;282.00;2278.40
16491;DHT22;8356;51.214;3.270;2024-03-23T02:00:10;282.10;2278.40
16491;DHT22;8356;51.214;3.270;2024-03-23T02:02:42;282.00;2278.40
16491;DHT22;8356;51.214;3.270;2024-03-23T02:05:08;281.90;2278.40
16491;DHT22;8356;51.214;3.270;2024-03-23T02:07:34;281.80;2278.40
16491;DHT22;8356;51.214;3.270;2024-03-23T02:10:00;281.80;2278.40
16491;DHT22;8356;51.214;3.270;2024-03-23T02:12:26;281.70;2278.40
16491;DHT22;8356;51.214;3.270;2024-03-23T02:14:52;256.90;2252.80
16491;DHT22;8356;51.214;3.270;2024-03-23T02:17:17;256.90;2252.80
16491;DHT22;8356;51.214;3.270;2024-03-23T02:19:43;281.60;2278.40
16491;DHT22;8356;51.214;3.270;2024-03-23T02:22:08;256.90;2252.80
16491;DHT22;8356;51.214;3.270;2024-03-23T02:24:37;281.60;2278.40
16491;DHT22;8356;51.214;3.270;2024-03-23T02:27:02;281.70;2278.40
16491;DHT22;8356;51.214;3.270;2024-03-23T02:29:28;281.70;2278.40
16491;DHT22;8356;51.214;3.270;2024-03-23T02:31:54;281.70;2278.40
16491;DHT22;8356;51.214;3.270;2024-03-23T02:34:19;281.60;2278.40
16491;DHT22;8356;51.214;3.270;2024-03-23T02:36:45;281.60;2278.40
16491;DHT22;8356;51.214;3.270;2024-03-23T02:39:10;256.90;2252.80
16491;DHT22;8356;51.214;3.270;2024-03-23T02:41:36;256.90;2252.80
16491;DHT22;8356;51.214;3.270;2024-03-23T02:44:02;256.80;2252.80
16491;DHT22;8356;51.214;3.270;2024-03-23T02:46:28;256.70;2252.80
16491;DHT22;8356;51.214;3.270;2024-03-23T02:48:53;256.60;2252.80
16491;DHT22;8356;51.214;3.270;2024-03-23T02:51:19;256.50;2252.80
16491;DHT22;8356;51.214;3.270;2024-03-23T02:53:45;256.40;2252.80
16491;DHT22;8356;51.214;3.270;2024-03-23T02:56:10;256.50;2252.80
16491;DHT22;8356;51.214;3.270;2024-03-23T02:58:41;256.60;2252.80
16491;DHT22;8356;51.214;3.270;2024-03-23T03:01:07;256.50;2252.80
16491;DHT22;8356;51.214;3.270;2024-03-23T03:03:32;256.50;2252.80
16491;DHT22;8356;51.214;3.270;2024-03-23T03:05:58;256.40;2252.80
16491;DHT22;8356;51.214;3.270;2024-03-23T03:08:23;256.30;2252.80
16491;DHT22;8356;51.214;3.270;2024-03-23T03:10:49;256.30;2252.80
16491;DHT22;8356;51.214;3.270;2024-03-23T03:13:14;256.40;2252.80
16491;DHT22;8356;51.214;3.270;2024-03-23T03:15:42;256.20;2252.80
16491;DHT22;8356;51.214;3.270;2024-03-23T03:18:08;256.10;2252.80
16491;DHT22;8356;51.214;3.270;2024-03-23T03:20:34;256.10;2252.80
16491;DHT22;8356;51.214;3.270;2024-03-23T03:23:00;256.20;2252.80
16491;DHT22;8356;51.214;3.270;2024-03-23T03:25:25;256.30;2252.80
16491;DHT22;8356;51.214;3.270;2024-03-23T03:27:51;256.40;2252.80
16491;DHT22;8356;51.214;3.270;2024-03-23T03:30:17;256.30;2252.80
16491;DHT22;8356;51.214;3.270;2024-03-23T03:32:42;256.30;2252.80
16491;DHT22;8356;51.214;3.270;2024-03-23T03:35:08;256.30;2252.80
16491;DHT22;8356;51.214;3.270;2024-03-23T03:37:34;256.10;2252.80
16491;DHT22;8356;51.214;3.270;2024-03-23T03:39:59;256.10;2252.80
16491;DHT22;8356;51.214;3.270;2024-03-23T03:42:25;256.10;2252.80
16491;DHT22;8356;51.214;3.270;2024-03-23T03:44:51;256.10;2252.80
16491;DHT22;8356;51.214;3.270;2024-03-23T03:47:17;256.10;2252.80
16491;DHT22;8356;51.214;3.270;2024-03-23T03:49:43;256.20;2252.80
16491;DHT22;8356;51.214;3.270;2024-03-23T03:52:09;256.20;2252.80
16491;DHT22;8356;51.214;3.270;2024-03-23T03:54:34;256.10;2252.80
16491;DHT22;8356;51.214;3.270;2024-03-23T03:57:00;256.30;2252.80
16491;DHT22;8356;51.214;3.270;2024-03-23T03:59:26;256.30;2252.80
16491;DHT22;8356;51.214;3.270;2024-03-23T04:01:51;256.30;2252.80
16491;DHT22;8356;51.214;3.270;2024-03-23T04:04:17;256.50;2252.80
16491;DHT22;8356;51.214;3.270;2024-03-23T04:06:43;256.50;2252.80
16491;DHT22;8356;51.214;3.270;2024-03-23T04:09:09;256.50;2252.80
16491;DHT22;8356;51.214;3.270;2024-03-23T04:11:35;256.50;2252.80
16491;DHT22;8356;51.214;3.270;2024-03-23T04:14:01;256.20;2252.80
16491;DHT22;8356;51.214;3.270;2024-03-23T04:16:34;256.10;2252.80
16491;DHT22;8356;51.214;3.270;2024-03-23T04:19:00;256.10;2252.80
16491;DHT22;8356;51.214;3.270;2024-03-23T04:21:25;256.10;2252.80
16491;DHT22;8356;51.214;3.270;2024-03-23T04:23:51;256.10;2252.80
16491;DHT22;8356;51.214;3.270;2024-03-23T04:26:17;256.00;2252.80
16491;DHT22;8356;51.214;3.270;2024-03-23T04:28:42;256.00;2252.80
16491;DHT22;8356;51.214;3.270;2024-03-23T04:31:08;256.00;2252.80
16491;DHT22;8356;51.214;3.270;2024-03-23T04:33:34;256.00;2252.80
16491;DHT22;8356;51.214;3.270;2024-03-23T04:36:00;256.00;2252.80
16491;DHT22;8356;51.214;3.270;2024-03-23T04:38:25;231.30;2252.80
16491;DHT22;8356;51.214;3.270;2024-03-23T04:40:58;231.20;2252.80
16491;DHT22;8356;51.214;3.270;2024-03-23T04:43:24;231.20;2252.80
16491;DHT22;8356;51.214;3.270;2024-03-23T04:45:50;231.20;2252.80
16491;DHT22;8356;51.214;3.270;2024-03-23T04:48:16;231.10;2252.80
16491;DHT22;8356;51.214;3.270;2024-03-23T04:50:41;231.10;2252.80
16491;DHT22;8356;51.214;3.270;2024-03-23T04:53:07;231.10;2252.80
16491;DHT22;8356;51.214;3.270;2024-03-23T04:55:33;231.20;2252.80
16491;DHT22;8356;51.214;3.270;2024-03-23T04:57:58;231.20;2252.80
16491;DHT22;8356;51.214;3.270;2024-03-23T05:00:25;231.20;2252.80
16491;DHT22;8356;51.214;3.270;2024-03-23T05:02:51;231.20;2252.80
16491;DHT22;8356;51.214;3.270;2024-03-23T05:05:18;231.20;2252.80
16491;DHT22;8356;51.214;3.270;2024-03-23T05:07:44;231.20;2252.80
16491;DHT22;8356;51.214;3.270;2024-03-23T05:10:10;231.20;2252.80
16491;DHT22;8356;51.214;3.270;2024-03-23T05:12:37;231.20;2252.80
16491;DHT22;8356;51.214;3.270;2024-03-23T05:15:06;231.20;2252.80
16491;DHT22;8356;51.214;3.270;2024-03-23T05:17:33;231.20;2252.80
16491;DHT22;8356;51.214;3.270;2024-03-23T05:19:59;231.30;2252.80
16491;DHT22;8356;51.214;3.270;2024-03-23T05:22:25;231.30;2252.80
16491;DHT22;8356;51.214;3.270;2024-03-23T05:24:50;231.10;2252.80
16491;DHT22;8356;51.214;3.270;2024-03-23T05:27:16;231.10;2252.80
16491;DHT22;8356;51.214;3.270;2024-03-23T05:29:41;231.10;2252.80
16491;DHT22;8356;51.214;3.270;2024-03-23T05:32:07;231.20;2252.80
16491;DHT22;8356;51.214;3.270;2024-03-23T05:34:33;231.00;2252.80
16491;DHT22;8356;51.214;3.270;2024-03-23T05:36:59;231.10;2252.80
16491;DHT22;8356;51.214;3.270;2024-03-23T05:39:24;231.20;2252.80
16491;DHT22;8356;51.214;3.270;2024-03-23T05:41:50;231.10;2252.80
16491;DHT22;8356;51.214;3.270;2024-03-23T05:44:16;231.20;2252.80
16491;DHT22;8356;51.214;3.270;2024-03-23T05:46:42;231.20;2252.80
16491;DHT22;8356;51.214;3.270;2024-03-23T05:49:08;231.10;2252.80
16491;DHT22;8356;51.214;3.270;2024-03-23T05:51:34;256.40;2252.80
16491;DHT22;8356;51.214;3.270;2024-03-23T05:54:00;231.20;2252.80
16491;DHT22;8356;51.214;3.270;2024-03-23T05:56:26;231.20;2252.80
16491;DHT22;8356;51.214;3.270;2024-03-23T05:58:52;231.10;2252.80
16491;DHT22;8356;51.214;3.270;2024-03-23T06:01:18;231.10;2252.80
16491;DHT22;8356;51.214;3.270;2024-03-23T06:03:43;231.20;2252.80
16491;DHT22;8356;51.214;3.270;2024-03-23T06:06:10;231.30;2252.80
16491;DHT22;8356;51.214;3.270;2024-03-23T06:08:37;256.00;2252.80
16491;DHT22;8356;51.214;3.270;2024-03-23T06:11:04;256.00;2252.80
16491;DHT22;8356;51.214;3.270;2024-03-23T06:13:32;256.00;2252.80
16491;DHT22;8356;51.214;3.270;2024-03-23T06:15:57;256.10;2252.80
16491;DHT22;8356;51.214;3.270;2024-03-23T06:18:24;256.00;2252.80
16491;DHT22;8356;51.214;3.270;2024-03-23T06:20:49;231.30;2252.80
16491;DHT22;8356;51.214;3.270;2024-03-23T06:23:15;231.30;2252.80
16491;DHT22;8356;51.214;3.270;2024-03-23T06:25:42;256.00;2252.80
16491;DHT22;8356;51.214;3.270;2024-03-23T06:28:08;256.00;2252.80
16491;DHT22;8356;51.214;3.270;2024-03-23T06:30:34;256.00;2252.80
16491;DHT22;8356;51.214;3.270;2024-03-23T06:32:59;256.10;2252.80
16491;DHT22;8356;51.214;3.270;2024-03-23T06:35:25;256.20;2252.80
16491;DHT22;8356;51.214;3.270;2024-03-23T06:37:50;256.10;2252.80
16491;DHT22;8356;51.214;3.270;2024-03-23T06:40:16;256.00;2252.80
16491;DHT22;8356;51.214;3.270;2024-03-23T06:42:42;256.10;2252.80
16491;DHT22;8356;51.214;3.270;2024-03-23T06:45:08;256.00;2252.80
16491;DHT22;8356;51.214;3.270;2024-03-23T06:47:34;256.10;2252.80
16491;DHT22;8356;51.214;3.270;2024-03-23T06:50:00;256.20;2252.80
16491;DHT22;8356;51.214;3.270;2024-03-23T06:52:29;256.30;2252.80
16491;DHT22;8356;51.214;3.270;2024-03-23T06:54:54;256.20;2252.80
16491;DHT22;8356;51.214;3.270;2024-03-23T06:57:20;256.10;2252.80
16491;DHT22;8356;51.214;3.270;2024-03-23T06:59:46;256.00;2252.80
16491;DHT22;8356;51.214;3.270;2024-03-23T07:02:12;256.00;2252.80
16491;DHT22;8356;51.214;3.270;2024-03-23T07:04:37;256.00;2252.80
16491;DHT22;8356;51.214;3.270;2024-03-23T07:07:05;256.00;2252.80
16491;DHT22;8356;51.214;3.270;2024-03-23T07:09:31;231.30;2252.80
16491;DHT22;8356;51.214;3.270;2024-03-23T07:11:57;231.20;2252.80
16491;DHT22;8356;51.214;3.270;2024-03-23T07:14:23;231.20;2252.80
16491;DHT22;8356;51.214;3.270;2024-03-23T07:16:49;231.30;2252.80
16491;DHT22;8356;51.214;3.270;2024-03-23T07:19:18;256.10;2252.80
16491;DHT22;8356;51.214;3.270;2024-03-23T07:21:46;256.10;2252.80
16491;DHT22;8356;51.214;3.270;2024-03-23T07:24:13;256.20;2252.80
16491;DHT22;8356;51.214;3.270;2024-03-23T07:26:39;256.40;2252.80
16491;DHT22;8356;51.214;3.270;2024-03-23T07:29:05;256.40;2252.80
16491;DHT22;8356;51.214;3.270;2024-03-23T07:31:30;256.50;2252.80
16491;DHT22;8356;51.214;3.270;2024-03-23T07:33:56;256.60;2252.80
16491;DHT22;8356;51.214;3.270;2024-03-23T07:36:22;256.60;2252.80
16491;DHT22;8356;51.214;3.270;2024-03-23T07:38:47;256.80;2252.80
16491;DHT22;8356;51.214;3.270;2024-03-23T07:41:18;256.90;2252.80
16491;DHT22;8356;51.214;3.270;2024-03-23T07:43:44;256.60;2252.80
16491;DHT22;8356;51.214;3.270;2024-03-23T07:46:10;256.80;2252.80
16491;DHT22;8356;51.214;3.270;2024-03-23T07:48:37;256.90;2252.80
16491;DHT22;8356;51.214;3.270;2024-03-23T07:51:09;256.80;2252.80
16491;DHT22;8356;51.214;3.270;2024-03-23T07:53:36;256.60;2252.80
16491;DHT22;8356;51.214;3.270;2024-03-23T07:56:07;256.70;2252.80
16491;DHT22;8356;51.214;3.270;2024-03-23T07:58:34;256.90;2252.80
16491;DHT22;8356;51.214;3.270;2024-03-23T08:01:06;281.80;2278.40
16491;DHT22;8356;51.214;3.270;2024-03-23T08:03:40;256.90;2252.80
16491;DHT22;8356;51.214;3.270;2024-03-23T08:08:38;256.60;2252.80
16491;DHT22;8356;51.214;3.270;2024-03-23T08:11:04;256.00;2252.80
16491;DHT22;8356;51.214;3.270;2024-03-23T08:13:30;231.20;2252.80
16491;DHT22;8356;51.214;3.270;2024-03-23T08:15:59;231.10;2252.80
16491;DHT22;8356;51.214;3.270;2024-03-23T08:18:25;231.30;2252.80
16491;DHT22;8356;51.214;3.270;2024-03-23T08:21:05;256.00;2252.80
16491;DHT22;8356;51.214;3.270;2024-03-23T08:23:33;256.10;2252.80
16491;DHT22;8356;51.214;3.270;2024-03-23T08:26:10;231.20;2252.80
16491;DHT22;8356;51.214;3.270;2024-03-23T08:28:36;231.00;2252.80
16491;DHT22;8356;51.214;3.270;2024-03-23T08:31:07;230.80;2252.80
16491;DHT22;8356;51.214;3.270;2024-03-23T08:33:33;230.70;2252.80
16491;DHT22;8356;51.214;3.270;2024-03-23T08:36:03;230.70;2252.80
16491;DHT22;8356;51.214;3.270;2024-03-23T08:38:29;230.90;2252.80
16491;DHT22;8356;51.214;3.270;2024-03-23T08:41:02;231.30;2252.80
16491;DHT22;8356;51.214;3.270;2024-03-23T08:43:29;256.30;2252.80
16491;DHT22;8356;51.214;3.270;2024-03-23T08:46:24;256.70;2252.80
16491;DHT22;8356;51.214;3.270;2024-03-23T08:48:49;281.70;2278.40
16491;DHT22;8356;51.214;3.270;2024-03-23T08:51:16;282.00;2278.40
16491;DHT22;8356;51.214;3.270;2024-03-23T08:53:43;282.30;2278.40
16491;DHT22;8356;51.214;3.270;2024-03-23T08:56:09;282.40;2278.40
16491;DHT22;8356;51.214;3.270;2024-03-23T08:58:36;282.30;2278.40
16491;DHT22;8356;51.214;3.270;2024-03-23T09:01:12;282.30;2278.40
16491;DHT22;8356;51.214;3.270;2024-03-23T09:03:39;282.30;2278.40
16491;DHT22;8356;51.214;3.270;2024-03-23T09:08:34;307.30;2304.00
16491;DHT22;8356;51.214;3.270;2024-03-23T09:11:04;282.40;2278.40
16491;DHT22;8356;51.214;3.270;2024-03-23T09:13:32;282.40;2278.40
16491;DHT22;8356;51.214;3.270;2024-03-23T09:15:58;282.20;2278.40
16491;DHT22;8356;51.214;3.270;2024-03-23T09:18:24;281.80;2278.40
16491;DHT22;8356;51.214;3.270;2024-03-23T09:20:49;281.90;2278.40
16491;DHT22;8356;51.214;3.270;2024-03-23T09:23:15;282.20;2278.40
16491;DHT22;8356;51.214;3.270;2024-03-23T09:25:41;282.50;2278.40
16491;DHT22;8356;51.214;3.270;2024-03-23T09:28:07;307.40;2304.00
16491;DHT22;8356;51.214;3.270;2024-03-23T09:30:35;307.40;2304.00
16491;DHT22;8356;51.214;3.270;2024-03-23T09:33:02;307.70;2304.00
16491;DHT22;8356;51.214;3.270;2024-03-23T09:35:28;308.10;2304.00
16491;DHT22;8356;51.214;3.270;2024-03-23T09:37:54;332.90;2329.60
16491;DHT22;8356;51.214;3.270;2024-03-23T09:40:20;308.10;2304.00
16491;DHT22;8356;51.214;3.270;2024-03-23T09:42:50;307.90;2304.00
16491;DHT22;8356;51.214;3.270;2024-03-23T09:45:27;308.00;2304.00
16491;DHT22;8356;51.214;3.270;2024-03-23T09:50:18;307.20;2304.00
16491;DHT22;8356;51.214;3.270;2024-03-23T09:52:47;282.40;2278.40
16491;DHT22;8356;51.214;3.270;2024-03-23T09:55:13;307.20;2304.00
16491;DHT22;8356;51.214;3.270;2024-03-23T09:57:40;282.50;2278.40
16491;DHT22;8356;51.214;3.270;2024-03-23T10:00:06;307.30;2304.00
16491;DHT22;8356;51.214;3.270;2024-03-23T10:02:36;307.70;2304.00
16491;DHT22;8356;51.214;3.270;2024-03-23T10:05:02;307.90;2304.00
16491;DHT22;8356;51.214;3.270;2024-03-23T10:07:28;307.80;2304.00
16491;DHT22;8356;51.214;3.270;2024-03-23T10:09:54;307.30;2304.00
16491;DHT22;8356;51.214;3.270;2024-03-23T10:12:20;282.40;2278.40
16491;DHT22;8356;51.214;3.270;2024-03-23T10:14:46;282.30;2278.40
16491;DHT22;8356;51.214;3.270;2024-03-23T10:17:13;282.50;2278.40
16491;DHT22;8356;51.214;3.270;2024-03-23T10:19:45;307.30;2304.00
16491;DHT22;8356;51.214;3.270;2024-03-23T10:22:17;282.50;2278.40
16491;DHT22;8356;51.214;3.270;2024-03-23T10:24:43;282.40;2278.40
16491;DHT22;8356;51.214;3.270;2024-03-23T10:27:08;307.40;2304.00
16491;DHT22;8356;51.214;3.270;2024-03-23T10:29:34;307.70;2304.00
16491;DHT22;8356;51.214;3.270;2024-03-23T10:32:10;307.70;2304.00
16491;DHT22;8356;51.214;3.270;2024-03-23T10:34:36;307.20;2304.00
16491;DHT22;8356;51.214;3.270;2024-03-23T10:37:03;307.30;2304.00
16491;DHT22;8356;51.214;3.270;2024-03-23T10:39:38;307.80;2304.00
16491;DHT22;8356;51.214;3.270;2024-03-23T10:42:06;308.10;2304.00
16491;DHT22;8356;51.214;3.270;2024-03-23T10:44:33;333.00;2329.60
16491;DHT22;8356;51.214;3.270;2024-03-23T10:46:58;333.10;2329.60
16491;DHT22;8356;51.214;3.270;2024-03-23T10:49:33;333.20;2329.60
16491;DHT22;8356;51.214;3.270;2024-03-23T10:52:03;333.30;2329.60
16491;DHT22;8356;51.214;3.270;2024-03-23T10:54:30;333.50;2329.60
16491;DHT22;8356;51.214;3.270;2024-03-23T10:57:20;358.90;2329.60
16491;DHT22;8356;51.214;3.270;2024-03-23T10:59:47;333.20;2329.60
16491;DHT22;8356;51.214;3.270;2024-03-23T11:02:20;308.00;2304.00
16491;DHT22;8356;51.214;3.270;2024-03-23T11:04:46;308.10;2304.00
16491;DHT22;8356;51.214;3.270;2024-03-23T11:07:32;308.10;2304.00
16491;DHT22;8356;51.214;3.270;2024-03-23T11:09:59;308.00;2304.00
16491;DHT22;8356;51.214;3.270;2024-03-23T11:12:27;307.60;2304.00
16491;DHT22;8356;51.214;3.270;2024-03-23T11:14:54;307.30;2304.00
16491;DHT22;8356;51.214;3.270;2024-03-23T11:17:24;282.50;2278.40
16491;DHT22;8356;51.214;3.270;2024-03-23T11:19:55;307.60;2304.00
16491;DHT22;8356;51.214;3.270;2024-03-23T11:22:37;307.70;2304.00
16491;DHT22;8356;51.214;3.270;2024-03-23T11:25:32;307.50;2304.00
16491;DHT22;8356;51.214;3.270;2024-03-23T11:28:10;307.50;2304.00
16491;DHT22;8356;51.214;3.270;2024-03-23T11:30:37;307.60;2304.00
16491;DHT22;8356;51.214;3.270;2024-03-23T11:33:05;307.90;2304.00
16491;DHT22;8356;51.214;3.270;2024-03-23T11:35:33;308.00;2304.00
16491;DHT22;8356;51.214;3.270;2024-03-23T11:40:30;333.10;2329.60
16491;DHT22;8356;51.214;3.270;2024-03-23T11:42:58;332.80;2329.60
16491;DHT22;8356;51.214;3.270;2024-03-23T11:45:24;307.60;2304.00
16491;DHT22;8356;51.214;3.270;2024-03-23T11:48:11;307.90;2304.00
16491;DHT22;8356;51.214;3.270;2024-03-23T11:50:39;307.70;2304.00
16491;DHT22;8356;51.214;3.270;2024-03-23T11:53:15;307.40;2304.00
16491;DHT22;8356;51.214;3.270;2024-03-23T11:58:14;307.20;2304.00
16491;DHT22;8356;51.214;3.270;2024-03-23T12:00:41;282.50;2278.40
16491;DHT22;8356;51.214;3.270;2024-03-23T12:03:07;282.50;2278.40
16491;DHT22;8356;51.214;3.270;2024-03-23T12:05:33;282.40;2278.40
16491;DHT22;8356;51.214;3.270;2024-03-23T12:08:20;282.00;2278.40
16491;DHT22;8356;51.214;3.270;2024-03-23T12:10:53;281.60;2278.40
16491;DHT22;8356;51.214;3.270;2024-03-23T12:13:29;256.80;2252.80
16491;DHT22;8356;51.214;3.270;2024-03-23T12:15:55;256.00;2252.80
16491;DHT22;8356;51.214;3.270;2024-03-23T12:18:33;230.90;2252.80
16491;DHT22;8356;51.214;3.270;2024-03-23T12:21:00;230.60;2252.80
16491;DHT22;8356;51.214;3.270;2024-03-23T12:23:25;230.70;2252.80
16491;DHT22;8356;51.214;3.270;2024-03-23T12:25:51;230.70;2252.80
16491;DHT22;8356;51.214;3.270;2024-03-23T12:28:16;231.10;2252.80
16491;DHT22;8356;51.214;3.270;2024-03-23T12:30:42;256.30;2252.80
16491;DHT22;8356;51.214;3.270;2024-03-23T12:33:08;281.80;2278.40
16491;DHT22;8356;51.214;3.270;2024-03-23T12:35:33;282.20;2278.40
16491;DHT22;8356;51.214;3.270;2024-03-23T12:37:59;282.50;2278.40
16491;DHT22;8356;51.214;3.270;2024-03-23T12:40:25;307.20;2304.00
16491;DHT22;8356;51.214;3.270;2024-03-23T12:42:52;307.60;2304.00
16491;DHT22;8356;51.214;3.270;2024-03-23T12:45:17;308.00;2304.00
16491;DHT22;8356;51.214;3.270;2024-03-23T12:47:43;307.90;2304.00
16491;DHT22;8356;51.214;3.270;2024-03-23T12:50:09;307.80;2304.00
16491;DHT22;8356;51.214;3.270;2024-03-23T12:52:35;307.80;2304.00
16491;DHT22;8356;51.214;3.270;2024-03-23T12:55:01;333.60;2329.60
16491;DHT22;8356;51.214;3.270;2024-03-23T12:57:27;307.70;2304.00
16491;DHT22;8356;51.214;3.270;2024-03-23T12:59:53;307.50;2304.00
16491;DHT22;8356;51.214;3.270;2024-03-23T13:02:22;307.40;2304.00
16491;DHT22;8356;51.214;3.270;2024-03-23T13:04:51;307.40;2304.00
16491;DHT22;8356;51.214;3.270;2024-03-23T13:07:18;333.50;2329.60
16491;DHT22;8356;51.214;3.270;2024-03-23T13:09:44;307.90;2304.00
16491;DHT22;8356;51.214;3.270;2024-03-23T13:12:10;308.10;2304.00
16491;DHT22;8356;51.214;3.270;2024-03-23T13:14:38;308.10;2304.00
16491;DHT22;8356;51.214;3.270;2024-03-23T13:17:03;308.00;2304.00
16491;DHT22;8356;51.214;3.270;2024-03-23T13:19:29;308.10;2304.00
16491;DHT22;8356;51.214;3.270;2024-03-23T13:21:59;333.00;2329.60
16491;DHT22;8356;51.214;3.270;2024-03-23T13:24:26;333.00;2329.60
16491;DHT22;8356;51.214;3.270;2024-03-23T13:26:52;332.90;2329.60
16491;DHT22;8356;51.214;3.270;2024-03-23T13:29:19;308.10;2304.00
16491;DHT22;8356;51.214;3.270;2024-03-23T13:31:48;307.90;2304.00
16491;DHT22;8356;51.214;3.270;2024-03-23T13:34:14;307.60;2304.00
16491;DHT22;8356;51.214;3.270;2024-03-23T13:36:47;307.40;2304.00
16491;DHT22;8356;51.214;3.270;2024-03-23T13:39:14;307.50;2304.00
16491;DHT22;8356;51.214;3.270;2024-03-23T13:41:46;307.60;2304.00
16491;DHT22;8356;51.214;3.270;2024-03-23T13:44:13;307.80;2304.00
16491;DHT22;8356;51.214;3.270;2024-03-23T13:46:41;307.80;2304.00
16491;DHT22;8356;51.214;3.270;2024-03-23T13:49:39;307.70;2304.00
16491;DHT22;8356;51.214;3.270;2024-03-23T13:52:06;307.60;2304.00
16491;DHT22;8356;51.214;3.270;2024-03-23T13:54:32;307.40;2304.00
16491;DHT22;8356;51.214;3.270;2024-03-23T13:56:58;307.30;2304.00
16491;DHT22;8356;51.214;3.270;2024-03-23T13:59:23;282.30;2278.40
16491;DHT22;8356;51.214;3.270;2024-03-23T14:01:50;282.40;2278.40
16491;DHT22;8356;51.214;3.270;2024-03-23T14:04:16;282.20;2278.40
16491;DHT22;8356;51.214;3.270;2024-03-23T14:06:43;282.10;2278.40
16491;DHT22;8356;51.214;3.270;2024-03-23T14:09:11;282.40;2278.40
16491;DHT22;8356;51.214;3.270;2024-03-23T14:11:37;282.00;2278.40
16491;DHT22;8356;51.214;3.270;2024-03-23T14:14:03;282.10;2278.40
16491;DHT22;8356;51.214;3.270;2024-03-23T14:16:32;282.20;2278.40
16491;DHT22;8356;51.214;3.270;2024-03-23T14:18:58;282.30;2278.40
16491;DHT22;8356;51.214;3.270;2024-03-23T14:21:24;282.30;2278.40
16491;DHT22;8356;51.214;3.270;2024-03-23T14:23:50;282.30;2278.40
16491;DHT22;8356;51.214;3.270;2024-03-23T14:26:16;282.10;2278.40
16491;DHT22;8356;51.214;3.270;2024-03-23T14:28:41;282.10;2278.40
16491;DHT22;8356;51.214;3.270;2024-03-23T14:31:07;282.10;2278.40
16491;DHT22;8356;51.214;3.270;2024-03-23T14:33:39;282.20;2278.40
16491;DHT22;8356;51.214;3.270;2024-03-23T14:36:14;282.10;2278.40
16491;DHT22;8356;51.214;3.270;2024-03-23T14:38:40;282.00;2278.40
16491;DHT22;8356;51.214;3.270;2024-03-23T14:41:06;281.90;2278.40
16491;DHT22;8356;51.214;3.270;2024-03-23T14:43:32;282.20;2278.40
16491;DHT22;8356;51.214;3.270;2024-03-23T14:46:10;282.50;2278.40
16491;DHT22;8356;51.214;3.270;2024-03-23T14:48:37;282.50;2278.40
16491;DHT22;8356;51.214;3.270;2024-03-23T14:51:03;282.40;2278.40
16491;DHT22;8356;51.214;3.270;2024-03-23T14:53:34;282.50;2278.40
16491;DHT22;8356;51.214;3.270;2024-03-23T14:56:01;307.20;2304.00
16491;DHT22;8356;51.214;3.270;2024-03-23T14:58:27;307.20;2304.00
16491;DHT22;8356;51.214;3.270;2024-03-23T15:00:59;282.50;2278.40
16491;DHT22;8356;51.214;3.270;2024-03-23T15:03:24;282.50;2278.40
16491;DHT22;8356;51.214;3.270;2024-03-23T15:05:56;282.40;2278.40
16491;DHT22;8356;51.214;3.270;2024-03-23T15:08:22;282.10;2278.40
16491;DHT22;8356;51.214;3.270;2024-03-23T15:10:47;282.00;2278.40
16491;DHT22;8356;51.214;3.270;2024-03-23T15:13:13;281.90;2278.40
16491;DHT22;8356;51.214;3.270;2024-03-23T15:15:40;281.90;2278.40
16491;DHT22;8356;51.214;3.270;2024-03-23T15:18:09;281.90;2278.40
16491;DHT22;8356;51.214;3.270;2024-03-23T15:20:35;282.10;2278.40
16491;DHT22;8356;51.214;3.270;2024-03-23T15:23:02;281.60;2278.40
16491;DHT22;8356;51.214;3.270;2024-03-23T15:25:28;282.10;2278.40
16491;DHT22;8356;51.214;3.270;2024-03-23T15:27:53;282.00;2278.40
16491;DHT22;8356;51.214;3.270;2024-03-23T15:30:20;282.00;2278.40
16491;DHT22;8356;51.214;3.270;2024-03-23T15:32:46;282.00;2278.40
16491;DHT22;8356;51.214;3.270;2024-03-23T15:35:12;281.80;2278.40
16491;DHT22;8356;51.214;3.270;2024-03-23T15:37:38;282.00;2278.40
16491;DHT22;8356;51.214;3.270;2024-03-23T15:40:05;282.10;2278.40
16491;DHT22;8356;51.214;3.270;2024-03-23T15:42:31;282.00;2278.40
16491;DHT22;8356;51.214;3.270;2024-03-23T15:44:57;282.00;2278.40
16491;DHT22;8356;51.214;3.270;2024-03-23T15:47:22;281.90;2278.40
16491;DHT22;8356;51.214;3.270;2024-03-23T15:49:49;282.00;2278.40
16491;DHT22;8356;51.214;3.270;2024-03-23T15:52:15;282.50;2278.40
16491;DHT22;8356;51.214;3.270;2024-03-23T15:54:43;281.60;2278.40
16491;DHT22;8356;51.214;3.270;2024-03-23T15:57:08;256.90;2252.80
16491;DHT22;8356;51.214;3.270;2024-03-23T15:59:34;256.80;2252.80
16491;DHT22;8356;51.214;3.270;2024-03-23T16:02:01;256.80;2252.80
16491;DHT22;8356;51.214;3.270;2024-03-23T16:04:28;256.80;2252.80
16491;DHT22;8356;51.214;3.270;2024-03-23T16:06:54;256.90;2252.80
16491;DHT22;8356;51.214;3.270;2024-03-23T16:09:19;256.90;2252.80